KUIL/UIL METAR and TAF weather

Enter ICAO airport designator
Station Type Date Time Source
KUIL METAR 2021/02/24 17:53 UTC NOAA

KUIL 241753Z AUTO 00000KT 10SM CLR 03/01 A3059 RMK AO2 SNB1656E05 SLP359 P0000 60000 I6000 T00280011 10028 21033 53014 PWINO $


Station Type Date Time Source
KUIL Decoded METAR 2021/02/24 17:53 UTC NOAA

QUILLAYUTE STATE AIRPORT, WA, United States (KUIL) 47-56N 124-34W 54M
Feb 24, 2021 - 12:53 PM EST / 2021.02.24 1753 UTC
Wind: Calm:0
Visibility: 10 mile(s):0
Sky conditions: clear
Precipitation last hour: A trace
Temperature: 37.0 F (2.8 C)
Dew Point: 34.0 F (1.1 C)
Relative Humidity: 88%
Pressure (altimeter): 30.59 in. Hg (1035 hPa)
Pressure tendency: 0.04 inches (1.4 hPa) higher than three hours ago
ob: KUIL 241753Z AUTO 00000KT 10SM CLR 03/01 A3059 RMK AO2 SNB1656E05 SLP359 P0000 60000 I6000 T00280011 10028 21033 53014 PWINO
cycle: 18

Station Type Date Time Source
KUIL TAF UTC NOAA

Error!

Example: see airport list